sensor_id;sensor_type;location;lat;lon;timestamp;P1;durP1;ratioP1;P2;durP2;ratioP2
8419;SDS011;4247;48.550;8.822;2023-01-19T00:02:24;6.40;;;5.23;;
8419;SDS011;4247;48.550;8.822;2023-01-19T00:04:51;7.67;;;3.50;;
8419;SDS011;4247;48.550;8.822;2023-01-19T00:07:17;6.67;;;4.80;;
8419;SDS011;4247;48.550;8.822;2023-01-19T00:09:44;9.10;;;4.57;;
8419;SDS011;4247;48.550;8.822;2023-01-19T00:12:12;9.00;;;5.10;;
8419;SDS011;4247;48.550;8.822;2023-01-19T00:14:39;7.13;;;4.43;;
8419;SDS011;4247;48.550;8.822;2023-01-19T00:17:05;7.43;;;4.37;;
8419;SDS011;4247;48.550;8.822;2023-01-19T00:19:32;8.40;;;4.63;;
8419;SDS011;4247;48.550;8.822;2023-01-19T00:21:59;6.97;;;3.83;;
8419;SDS011;4247;48.550;8.822;2023-01-19T00:24:25;7.17;;;4.93;;
8419;SDS011;4247;48.550;8.822;2023-01-19T00:26:52;7.17;;;4.87;;
8419;SDS011;4247;48.550;8.822;2023-01-19T00:29:20;7.13;;;5.33;;
8419;SDS011;4247;48.550;8.822;2023-01-19T00:31:48;13.00;;;7.90;;
8419;SDS011;4247;48.550;8.822;2023-01-19T00:34:15;6.97;;;4.63;;
8419;SDS011;4247;48.550;8.822;2023-01-19T00:36:41;11.50;;;4.80;;
8419;SDS011;4247;48.550;8.822;2023-01-19T00:39:08;7.50;;;4.90;;
8419;SDS011;4247;48.550;8.822;2023-01-19T00:41:35;12.97;;;5.57;;
8419;SDS011;4247;48.550;8.822;2023-01-19T00:44:20;9.40;;;5.43;;
8419;SDS011;4247;48.550;8.822;2023-01-19T00:46:47;6.37;;;4.90;;
8419;SDS011;4247;48.550;8.822;2023-01-19T00:49:13;9.60;;;4.37;;
8419;SDS011;4247;48.550;8.822;2023-01-19T00:51:40;5.87;;;4.27;;
8419;SDS011;4247;48.550;8.822;2023-01-19T00:54:07;5.10;;;4.33;;
8419;SDS011;4247;48.550;8.822;2023-01-19T00:56:34;5.90;;;4.33;;
8419;SDS011;4247;48.550;8.822;2023-01-19T00:59:01;6.33;;;4.57;;
8419;SDS011;4247;48.550;8.822;2023-01-19T01:01:30;5.70;;;4.73;;
8419;SDS011;4247;48.550;8.822;2023-01-19T01:03:57;8.07;;;4.73;;
8419;SDS011;4247;48.550;8.822;2023-01-19T01:06:23;5.90;;;4.23;;
8419;SDS011;4247;48.550;8.822;2023-01-19T01:08:50;10.33;;;3.87;;
8419;SDS011;4247;48.550;8.822;2023-01-19T01:11:17;13.47;;;5.30;;
8419;SDS011;4247;48.550;8.822;2023-01-19T01:13:44;5.13;;;4.00;;
8419;SDS011;4247;48.550;8.822;2023-01-19T01:16:13;5.43;;;4.60;;
8419;SDS011;4247;48.550;8.822;2023-01-19T01:18:41;6.00;;;4.80;;
8419;SDS011;4247;48.550;8.822;2023-01-19T01:21:08;4.90;;;3.77;;
8419;SDS011;4247;48.550;8.822;2023-01-19T01:23:37;4.83;;;3.90;;
8419;SDS011;4247;48.550;8.822;2023-01-19T01:26:04;8.27;;;4.47;;
8419;SDS011;4247;48.550;8.822;2023-01-19T01:28:31;7.53;;;4.73;;
8419;SDS011;4247;48.550;8.822;2023-01-19T01:30:57;11.77;;;4.70;;
8419;SDS011;4247;48.550;8.822;2023-01-19T01:33:24;6.43;;;5.20;;
8419;SDS011;4247;48.550;8.822;2023-01-19T01:35:52;9.00;;;5.20;;
8419;SDS011;4247;48.550;8.822;2023-01-19T01:38:19;9.53;;;4.73;;
8419;SDS011;4247;48.550;8.822;2023-01-19T01:40:46;7.90;;;4.40;;
8419;SDS011;4247;48.550;8.822;2023-01-19T01:43:13;7.40;;;4.63;;
8419;SDS011;4247;48.550;8.822;2023-01-19T01:45:41;11.77;;;5.10;;
8419;SDS011;4247;48.550;8.822;2023-01-19T01:48:09;5.80;;;4.57;;
8419;SDS011;4247;48.550;8.822;2023-01-19T01:50:39;7.37;;;4.00;;
8419;SDS011;4247;48.550;8.822;2023-01-19T01:53:30;4.93;;;3.70;;
8419;SDS011;4247;48.550;8.822;2023-01-19T01:55:59;4.67;;;3.97;;
8419;SDS011;4247;48.550;8.822;2023-01-19T01:58:30;6.20;;;4.60;;
8419;SDS011;4247;48.550;8.822;2023-01-19T02:00:58;5.70;;;3.80;;
8419;SDS011;4247;48.550;8.822;2023-01-19T02:03:44;7.80;;;4.80;;
8419;SDS011;4247;48.550;8.822;2023-01-19T02:06:11;6.00;;;4.37;;
8419;SDS011;4247;48.550;8.822;2023-01-19T02:08:42;7.77;;;4.20;;
8419;SDS011;4247;48.550;8.822;2023-01-19T02:11:30;6.33;;;3.93;;
8419;SDS011;4247;48.550;8.822;2023-01-19T02:14:15;5.70;;;4.23;;
8419;SDS011;4247;48.550;8.822;2023-01-19T02:16:43;5.17;;;4.40;;
8419;SDS011;4247;48.550;8.822;2023-01-19T02:19:12;5.43;;;4.20;;
8419;SDS011;4247;48.550;8.822;2023-01-19T02:21:43;8.40;;;4.50;;
8419;SDS011;4247;48.550;8.822;2023-01-19T02:24:18;3.90;;;3.50;;
8419;SDS011;4247;48.550;8.822;2023-01-19T02:26:46;10.93;;;4.40;;
8419;SDS011;4247;48.550;8.822;2023-01-19T02:29:15;5.40;;;4.40;;
8419;SDS011;4247;48.550;8.822;2023-01-19T02:31:45;4.07;;;3.17;;
8419;SDS011;4247;48.550;8.822;2023-01-19T02:34:13;3.80;;;3.40;;
8419;SDS011;4247;48.550;8.822;2023-01-19T02:36:44;5.80;;;3.83;;
8419;SDS011;4247;48.550;8.822;2023-01-19T02:39:15;8.17;;;4.50;;
8419;SDS011;4247;48.550;8.822;2023-01-19T02:41:46;6.03;;;3.73;;
8419;SDS011;4247;48.550;8.822;2023-01-19T02:44:16;6.03;;;3.13;;
8419;SDS011;4247;48.550;8.822;2023-01-19T02:46:45;5.63;;;3.70;;
8419;SDS011;4247;48.550;8.822;2023-01-19T02:49:11;4.30;;;3.73;;
8419;SDS011;4247;48.550;8.822;2023-01-19T02:51:38;7.67;;;3.70;;
8419;SDS011;4247;48.550;8.822;2023-01-19T02:54:26;2.80;;;2.43;;
8419;SDS011;4247;48.550;8.822;2023-01-19T02:57:03;4.67;;;2.87;;
8419;SDS011;4247;48.550;8.822;2023-01-19T02:59:52;4.47;;;2.97;;
8419;SDS011;4247;48.550;8.822;2023-01-19T03:02:33;4.80;;;2.90;;
8419;SDS011;4247;48.550;8.822;2023-01-19T03:05:15;4.60;;;3.00;;
8419;SDS011;4247;48.550;8.822;2023-01-19T03:07:49;4.57;;;3.70;;
8419;SDS011;4247;48.550;8.822;2023-01-19T03:10:22;5.13;;;3.20;;
8419;SDS011;4247;48.550;8.822;2023-01-19T03:12:58;6.73;;;3.63;;
8419;SDS011;4247;48.550;8.822;2023-01-19T03:15:30;3.67;;;3.13;;
8419;SDS011;4247;48.550;8.822;2023-01-19T03:18:04;6.23;;;4.67;;
8419;SDS011;4247;48.550;8.822;2023-01-19T03:20:33;5.30;;;3.97;;
8419;SDS011;4247;48.550;8.822;2023-01-19T03:23:00;3.67;;;2.80;;
8419;SDS011;4247;48.550;8.822;2023-01-19T03:25:34;7.63;;;3.53;;
8419;SDS011;4247;48.550;8.822;2023-01-19T03:28:05;5.50;;;3.97;;
8419;SDS011;4247;48.550;8.822;2023-01-19T03:30:33;4.53;;;3.83;;
8419;SDS011;4247;48.550;8.822;2023-01-19T03:33:06;4.30;;;3.70;;
8419;SDS011;4247;48.550;8.822;2023-01-19T03:35:37;5.63;;;3.67;;
8419;SDS011;4247;48.550;8.822;2023-01-19T03:38:14;6.93;;;4.67;;
8419;SDS011;4247;48.550;8.822;2023-01-19T03:40:42;6.07;;;3.37;;
8419;SDS011;4247;48.550;8.822;2023-01-19T03:43:12;3.53;;;3.10;;
8419;SDS011;4247;48.550;8.822;2023-01-19T03:45:41;8.60;;;3.70;;
8419;SDS011;4247;48.550;8.822;2023-01-19T03:48:09;3.80;;;3.10;;
8419;SDS011;4247;48.550;8.822;2023-01-19T03:50:37;6.07;;;5.00;;
8419;SDS011;4247;48.550;8.822;2023-01-19T03:53:05;6.43;;;3.20;;
8419;SDS011;4247;48.550;8.822;2023-01-19T03:55:34;3.40;;;3.10;;
8419;SDS011;4247;48.550;8.822;2023-01-19T03:58:03;6.30;;;4.63;;
8419;SDS011;4247;48.550;8.822;2023-01-19T04:00:32;7.70;;;5.00;;
8419;SDS011;4247;48.550;8.822;2023-01-19T04:03:00;7.10;;;4.40;;
8419;SDS011;4247;48.550;8.822;2023-01-19T04:05:27;5.17;;;3.50;;
8419;SDS011;4247;48.550;8.822;2023-01-19T04:07:54;14.83;;;4.17;;
8419;SDS011;4247;48.550;8.822;2023-01-19T04:10:21;6.90;;;4.80;;
8419;SDS011;4247;48.550;8.822;2023-01-19T04:12:48;5.50;;;4.93;;
8419;SDS011;4247;48.550;8.822;2023-01-19T04:15:15;5.87;;;4.47;;
8419;SDS011;4247;48.550;8.822;2023-01-19T04:17:43;8.20;;;4.93;;
8419;SDS011;4247;48.550;8.822;2023-01-19T04:20:10;10.33;;;5.27;;
8419;SDS011;4247;48.550;8.822;2023-01-19T04:22:37;8.93;;;5.07;;
8419;SDS011;4247;48.550;8.822;2023-01-19T04:25:05;9.93;;;5.23;;
8419;SDS011;4247;48.550;8.822;2023-01-19T04:27:33;12.67;;;5.80;;
8419;SDS011;4247;48.550;8.822;2023-01-19T04:29:59;7.87;;;4.67;;
8419;SDS011;4247;48.550;8.822;2023-01-19T04:32:27;6.67;;;4.30;;
8419;SDS011;4247;48.550;8.822;2023-01-19T04:34:55;8.57;;;5.10;;
8419;SDS011;4247;48.550;8.822;2023-01-19T04:37:22;8.47;;;4.53;;
8419;SDS011;4247;48.550;8.822;2023-01-19T04:39:49;7.50;;;5.00;;
8419;SDS011;4247;48.550;8.822;2023-01-19T04:42:16;7.03;;;4.73;;
8419;SDS011;4247;48.550;8.822;2023-01-19T04:44:42;6.67;;;4.30;;
8419;SDS011;4247;48.550;8.822;2023-01-19T04:47:09;8.93;;;5.43;;
8419;SDS011;4247;48.550;8.822;2023-01-19T04:49:36;9.30;;;5.03;;
8419;SDS011;4247;48.550;8.822;2023-01-19T04:52:04;6.63;;;5.23;;
8419;SDS011;4247;48.550;8.822;2023-01-19T04:54:31;4.67;;;4.20;;
8419;SDS011;4247;48.550;8.822;2023-01-19T04:56:58;10.63;;;4.90;;
8419;SDS011;4247;48.550;8.822;2023-01-19T04:59:25;8.07;;;4.90;;
8419;SDS011;4247;48.550;8.822;2023-01-19T05:01:51;9.57;;;5.27;;
8419;SDS011;4247;48.550;8.822;2023-01-19T05:04:19;7.83;;;4.90;;
8419;SDS011;4247;48.550;8.822;2023-01-19T05:06:46;5.67;;;4.30;;
8419;SDS011;4247;48.550;8.822;2023-01-19T05:09:15;7.60;;;6.13;;
8419;SDS011;4247;48.550;8.822;2023-01-19T05:11:42;10.20;;;5.33;;
8419;SDS011;4247;48.550;8.822;2023-01-19T05:14:08;8.67;;;6.23;;
8419;SDS011;4247;48.550;8.822;2023-01-19T05:16:35;8.83;;;6.10;;
8419;SDS011;4247;48.550;8.822;2023-01-19T05:19:02;8.43;;;5.90;;
8419;SDS011;4247;48.550;8.822;2023-01-19T05:21:29;6.43;;;5.80;;
8419;SDS011;4247;48.550;8.822;2023-01-19T05:23:56;9.10;;;5.63;;
8419;SDS011;4247;48.550;8.822;2023-01-19T05:26:24;8.53;;;4.70;;
8419;SDS011;4247;48.550;8.822;2023-01-19T05:28:51;9.20;;;5.80;;
8419;SDS011;4247;48.550;8.822;2023-01-19T05:31:17;7.67;;;6.00;;
8419;SDS011;4247;48.550;8.822;2023-01-19T05:33:44;13.17;;;6.43;;
8419;SDS011;4247;48.550;8.822;2023-01-19T05:36:12;5.73;;;4.87;;
8419;SDS011;4247;48.550;8.822;2023-01-19T05:38:39;5.07;;;4.47;;
8419;SDS011;4247;48.550;8.822;2023-01-19T05:41:05;9.73;;;4.40;;
8419;SDS011;4247;48.550;8.822;2023-01-19T05:43:33;5.13;;;3.40;;
8419;SDS011;4247;48.550;8.822;2023-01-19T05:46:02;8.27;;;4.43;;
8419;SDS011;4247;48.550;8.822;2023-01-19T05:48:29;7.47;;;5.07;;
8419;SDS011;4247;48.550;8.822;2023-01-19T05:50:57;6.03;;;4.43;;
8419;SDS011;4247;48.550;8.822;2023-01-19T05:53:24;7.33;;;5.20;;
8419;SDS011;4247;48.550;8.822;2023-01-19T05:55:51;9.93;;;5.20;;
8419;SDS011;4247;48.550;8.822;2023-01-19T05:58:18;7.33;;;4.07;;
8419;SDS011;4247;48.550;8.822;2023-01-19T06:00:46;7.53;;;4.63;;
8419;SDS011;4247;48.550;8.822;2023-01-19T06:03:13;8.30;;;4.30;;
8419;SDS011;4247;48.550;8.822;2023-01-19T06:05:40;7.23;;;4.73;;
8419;SDS011;4247;48.550;8.822;2023-01-19T06:08:07;10.63;;;5.80;;
8419;SDS011;4247;48.550;8.822;2023-01-19T06:10:33;7.47;;;4.70;;
8419;SDS011;4247;48.550;8.822;2023-01-19T06:13:00;7.63;;;4.77;;
8419;SDS011;4247;48.550;8.822;2023-01-19T06:15:27;11.93;;;6.30;;
8419;SDS011;4247;48.550;8.822;2023-01-19T06:17:55;7.40;;;4.57;;
8419;SDS011;4247;48.550;8.822;2023-01-19T06:20:22;6.60;;;3.60;;
8419;SDS011;4247;48.550;8.822;2023-01-19T06:22:49;5.37;;;3.67;;
8419;SDS011;4247;48.550;8.822;2023-01-19T06:25:16;6.93;;;4.60;;
8419;SDS011;4247;48.550;8.822;2023-01-19T06:27:43;12.80;;;6.53;;
8419;SDS011;4247;48.550;8.822;2023-01-19T06:30:10;7.70;;;4.93;;
8419;SDS011;4247;48.550;8.822;2023-01-19T06:32:38;8.40;;;4.60;;
8419;SDS011;4247;48.550;8.822;2023-01-19T06:35:06;7.67;;;4.77;;
8419;SDS011;4247;48.550;8.822;2023-01-19T06:37:33;12.27;;;6.57;;
8419;SDS011;4247;48.550;8.822;2023-01-19T06:40:00;10.10;;;5.77;;
8419;SDS011;4247;48.550;8.822;2023-01-19T06:42:27;12.57;;;7.60;;
8419;SDS011;4247;48.550;8.822;2023-01-19T06:44:54;8.70;;;4.93;;
8419;SDS011;4247;48.550;8.822;2023-01-19T06:47:21;4.60;;;4.20;;
8419;SDS011;4247;48.550;8.822;2023-01-19T06:49:47;5.63;;;4.60;;
8419;SDS011;4247;48.550;8.822;2023-01-19T06:52:15;9.53;;;5.20;;
8419;SDS011;4247;48.550;8.822;2023-01-19T06:54:43;11.30;;;5.90;;
8419;SDS011;4247;48.550;8.822;2023-01-19T06:57:11;6.57;;;5.40;;
8419;SDS011;4247;48.550;8.822;2023-01-19T06:59:37;12.43;;;7.97;;
8419;SDS011;4247;48.550;8.822;2023-01-19T07:02:04;8.73;;;6.57;;
8419;SDS011;4247;48.550;8.822;2023-01-19T07:04:31;15.00;;;9.50;;
8419;SDS011;4247;48.550;8.822;2023-01-19T07:06:58;18.73;;;11.40;;
8419;SDS011;4247;48.550;8.822;2023-01-19T07:09:26;10.40;;;7.20;;
8419;SDS011;4247;48.550;8.822;2023-01-19T07:11:53;11.77;;;6.37;;
8419;SDS011;4247;48.550;8.822;2023-01-19T07:14:20;7.90;;;4.67;;
8419;SDS011;4247;48.550;8.822;2023-01-19T07:16:46;6.23;;;4.43;;
8419;SDS011;4247;48.550;8.822;2023-01-19T07:19:13;7.47;;;3.77;;
8419;SDS011;4247;48.550;8.822;2023-01-19T07:21:40;7.17;;;4.17;;
8419;SDS011;4247;48.550;8.822;2023-01-19T07:24:06;10.10;;;4.43;;
8419;SDS011;4247;48.550;8.822;2023-01-19T07:26:34;7.47;;;5.10;;
8419;SDS011;4247;48.550;8.822;2023-01-19T07:29:01;9.47;;;5.13;;
8419;SDS011;4247;48.550;8.822;2023-01-19T07:31:28;7.33;;;4.50;;
8419;SDS011;4247;48.550;8.822;2023-01-19T07:33:54;8.93;;;4.63;;
8419;SDS011;4247;48.550;8.822;2023-01-19T07:36:21;11.40;;;6.77;;
8419;SDS011;4247;48.550;8.822;2023-01-19T07:38:48;10.90;;;3.93;;
8419;SDS011;4247;48.550;8.822;2023-01-19T07:41:15;11.43;;;5.17;;
8419;SDS011;4247;48.550;8.822;2023-01-19T07:43:43;16.53;;;6.53;;
8419;SDS011;4247;48.550;8.822;2023-01-19T07:46:10;15.43;;;4.97;;
8419;SDS011;4247;48.550;8.822;2023-01-19T07:48:36;20.63;;;8.00;;
8419;SDS011;4247;48.550;8.822;2023-01-19T07:51:03;35.80;;;10.43;;
8419;SDS011;4247;48.550;8.822;2023-01-19T07:53:32;27.40;;;10.70;;
8419;SDS011;4247;48.550;8.822;2023-01-19T07:55:59;11.97;;;6.80;;
8419;SDS011;4247;48.550;8.822;2023-01-19T07:58:26;5.40;;;3.87;;
8419;SDS011;4247;48.550;8.822;2023-01-19T08:00:54;6.33;;;4.47;;
8419;SDS011;4247;48.550;8.822;2023-01-19T08:03:20;5.00;;;3.73;;
8419;SDS011;4247;48.550;8.822;2023-01-19T08:05:48;6.23;;;3.27;;
8419;SDS011;4247;48.550;8.822;2023-01-19T08:08:16;4.40;;;2.97;;
8419;SDS011;4247;48.550;8.822;2023-01-19T08:10:42;5.23;;;4.00;;
8419;SDS011;4247;48.550;8.822;2023-01-19T08:13:10;8.03;;;4.40;;
8419;SDS011;4247;48.550;8.822;2023-01-19T08:15:36;10.20;;;4.97;;
8419;SDS011;4247;48.550;8.822;2023-01-19T08:18:05;6.17;;;3.63;;
8419;SDS011;4247;48.550;8.822;2023-01-19T08:20:33;6.13;;;4.37;;
8419;SDS011;4247;48.550;8.822;2023-01-19T08:23:00;3.43;;;2.87;;
8419;SDS011;4247;48.550;8.822;2023-01-19T08:25:30;5.63;;;3.93;;
8419;SDS011;4247;48.550;8.822;2023-01-19T08:27:57;4.07;;;3.53;;
8419;SDS011;4247;48.550;8.822;2023-01-19T08:30:24;4.77;;;4.10;;
8419;SDS011;4247;48.550;8.822;2023-01-19T08:32:51;6.83;;;4.33;;
8419;SDS011;4247;48.550;8.822;2023-01-19T08:35:20;12.40;;;7.63;;
8419;SDS011;4247;48.550;8.822;2023-01-19T08:37:47;7.83;;;4.40;;
8419;SDS011;4247;48.550;8.822;2023-01-19T08:40:15;8.20;;;5.73;;
8419;SDS011;4247;48.550;8.822;2023-01-19T08:42:42;5.83;;;4.60;;
8419;SDS011;4247;48.550;8.822;2023-01-19T08:45:09;8.40;;;3.93;;
8419;SDS011;4247;48.550;8.822;2023-01-19T08:47:36;7.83;;;4.37;;
8419;SDS011;4247;48.550;8.822;2023-01-19T08:50:02;5.43;;;4.33;;
8419;SDS011;4247;48.550;8.822;2023-01-19T08:52:31;5.47;;;3.60;;
8419;SDS011;4247;48.550;8.822;2023-01-19T08:54:57;5.93;;;4.23;;
8419;SDS011;4247;48.550;8.822;2023-01-19T08:57:25;4.93;;;4.20;;
8419;SDS011;4247;48.550;8.822;2023-01-19T08:59:52;5.30;;;3.33;;
8419;SDS011;4247;48.550;8.822;2023-01-19T09:02:19;5.03;;;3.67;;
8419;SDS011;4247;48.550;8.822;2023-01-19T09:04:46;5.73;;;3.33;;
8419;SDS011;4247;48.550;8.822;2023-01-19T09:07:13;3.80;;;3.40;;
8419;SDS011;4247;48.550;8.822;2023-01-19T09:09:42;6.97;;;4.83;;
8419;SDS011;4247;48.550;8.822;2023-01-19T09:12:09;11.70;;;5.73;;
8419;SDS011;4247;48.550;8.822;2023-01-19T09:14:36;27.43;;;12.20;;
8419;SDS011;4247;48.550;8.822;2023-01-19T09:17:03;36.33;;;15.97;;
8419;SDS011;4247;48.550;8.822;2023-01-19T09:19:30;32.87;;;12.13;;
8419;SDS011;4247;48.550;8.822;2023-01-19T09:21:57;35.90;;;15.63;;
8419;SDS011;4247;48.550;8.822;2023-01-19T09:24:24;32.47;;;12.00;;
8419;SDS011;4247;48.550;8.822;2023-01-19T09:26:52;12.87;;;6.87;;
8419;SDS011;4247;48.550;8.822;2023-01-19T09:29:19;9.47;;;5.77;;
8419;SDS011;4247;48.550;8.822;2023-01-19T09:31:46;10.27;;;5.47;;
8419;SDS011;4247;48.550;8.822;2023-01-19T09:34:13;18.50;;;9.67;;
8419;SDS011;4247;48.550;8.822;2023-01-19T09:36:41;16.17;;;6.80;;
8419;SDS011;4247;48.550;8.822;2023-01-19T09:39:07;18.87;;;8.00;;
8419;SDS011;4247;48.550;8.822;2023-01-19T09:41:35;23.33;;;10.57;;
8419;SDS011;4247;48.550;8.822;2023-01-19T09:44:05;12.47;;;7.53;;
8419;SDS011;4247;48.550;8.822;2023-01-19T09:46:40;22.73;;;8.07;;
8419;SDS011;4247;48.550;8.822;2023-01-19T09:49:10;8.20;;;4.43;;
8419;SDS011;4247;48.550;8.822;2023-01-19T09:51:39;5.40;;;3.47;;
8419;SDS011;4247;48.550;8.822;2023-01-19T09:54:10;8.70;;;3.43;;
8419;SDS011;4247;48.550;8.822;2023-01-19T09:56:39;6.73;;;4.13;;
8419;SDS011;4247;48.550;8.822;2023-01-19T10:04:53;6.77;;;3.23;;
8419;SDS011;4247;48.550;8.822;2023-01-19T10:07:37;9.73;;;4.77;;
8419;SDS011;4247;48.550;8.822;2023-01-19T10:10:18;10.33;;;4.80;;
8419;SDS011;4247;48.550;8.822;2023-01-19T10:12:52;10.87;;;4.37;;
8419;SDS011;4247;48.550;8.822;2023-01-19T10:15:31;10.77;;;4.60;;
8419;SDS011;4247;48.550;8.822;2023-01-19T10:18:11;5.70;;;3.30;;
8419;SDS011;4247;48.550;8.822;2023-01-19T10:20:42;7.47;;;3.63;;
8419;SDS011;4247;48.550;8.822;2023-01-19T10:23:17;8.40;;;3.97;;
8419;SDS011;4247;48.550;8.822;2023-01-19T10:25:49;10.87;;;3.63;;
8419;SDS011;4247;48.550;8.822;2023-01-19T10:28:17;16.63;;;5.37;;
8419;SDS011;4247;48.550;8.822;2023-01-19T10:30:50;29.03;;;8.87;;
8419;SDS011;4247;48.550;8.822;2023-01-19T10:33:18;18.70;;;7.20;;
8419;SDS011;4247;48.550;8.822;2023-01-19T10:35:45;28.60;;;10.30;;
8419;SDS011;4247;48.550;8.822;2023-01-19T10:38:13;15.70;;;6.10;;
8419;SDS011;4247;48.550;8.822;2023-01-19T10:40:45;7.57;;;4.73;;
8419;SDS011;4247;48.550;8.822;2023-01-19T10:46:05;10.97;;;4.97;;
8419;SDS011;4247;48.550;8.822;2023-01-19T10:48:37;4.23;;;2.77;;
8419;SDS011;4247;48.550;8.822;2023-01-19T10:51:06;4.03;;;3.63;;
8419;SDS011;4247;48.550;8.822;2023-01-19T10:53:34;7.23;;;4.00;;
8419;SDS011;4247;48.550;8.822;2023-01-19T10:56:09;3.63;;;3.20;;
8419;SDS011;4247;48.550;8.822;2023-01-19T10:58:38;6.10;;;4.30;;
8419;SDS011;4247;48.550;8.822;2023-01-19T11:01:13;7.20;;;4.70;;
8419;SDS011;4247;48.550;8.822;2023-01-19T11:03:41;4.67;;;3.43;;
8419;SDS011;4247;48.550;8.822;2023-01-19T11:06:19;5.00;;;3.33;;
8419;SDS011;4247;48.550;8.822;2023-01-19T11:08:51;3.60;;;3.27;;
8419;SDS011;4247;48.550;8.822;2023-01-19T11:11:25;13.10;;;6.13;;
8419;SDS011;4247;48.550;8.822;2023-01-19T11:14:01;7.57;;;5.23;;
8419;SDS011;4247;48.550;8.822;2023-01-19T11:16:33;6.83;;;4.83;;
8419;SDS011;4247;48.550;8.822;2023-01-19T11:19:02;8.00;;;3.30;;
8419;SDS011;4247;48.550;8.822;2023-01-19T11:21:29;2.70;;;2.43;;
8419;SDS011;4247;48.550;8.822;2023-01-19T11:23:57;4.63;;;3.07;;
8419;SDS011;4247;48.550;8.822;2023-01-19T11:26:26;4.23;;;2.63;;
8419;SDS011;4247;48.550;8.822;2023-01-19T11:28:55;7.63;;;4.90;;
8419;SDS011;4247;48.550;8.822;2023-01-19T11:31:30;4.90;;;2.80;;
8419;SDS011;4247;48.550;8.822;2023-01-19T11:34:00;15.03;;;4.73;;
8419;SDS011;4247;48.550;8.822;2023-01-19T11:36:29;7.20;;;3.33;;
8419;SDS011;4247;48.550;8.822;2023-01-19T11:38:57;7.73;;;3.93;;
8419;SDS011;4247;48.550;8.822;2023-01-19T11:41:29;3.83;;;3.43;;
8419;SDS011;4247;48.550;8.822;2023-01-19T11:43:59;4.97;;;3.17;;
8419;SDS011;4247;48.550;8.822;2023-01-19T11:46:36;2.60;;;2.23;;
8419;SDS011;4247;48.550;8.822;2023-01-19T11:49:07;3.40;;;2.80;;
8419;SDS011;4247;48.550;8.822;2023-01-19T11:51:51;3.17;;;2.10;;
8419;SDS011;4247;48.550;8.822;2023-01-19T11:54:25;7.13;;;2.03;;
8419;SDS011;4247;48.550;8.822;2023-01-19T11:56:56;2.13;;;1.70;;
8419;SDS011;4247;48.550;8.822;2023-01-19T11:59:25;2.23;;;1.50;;
8419;SDS011;4247;48.550;8.822;2023-01-19T12:01:55;1.87;;;1.60;;
8419;SDS011;4247;48.550;8.822;2023-01-19T12:04:26;3.93;;;2.20;;
8419;SDS011;4247;48.550;8.822;2023-01-19T12:06:56;3.43;;;1.63;;
8419;SDS011;4247;48.550;8.822;2023-01-19T12:09:29;1.70;;;1.60;;
8419;SDS011;4247;48.550;8.822;2023-01-19T12:12:01;2.50;;;1.67;;
8419;SDS011;4247;48.550;8.822;2023-01-19T12:14:33;3.87;;;1.97;;
8419;SDS011;4247;48.550;8.822;2023-01-19T12:17:06;3.53;;;1.90;;
8419;SDS011;4247;48.550;8.822;2023-01-19T12:19:39;2.97;;;1.90;;
8419;SDS011;4247;48.550;8.822;2023-01-19T12:22:10;2.10;;;1.50;;
8419;SDS011;4247;48.550;8.822;2023-01-19T12:24:40;2.83;;;1.73;;
8419;SDS011;4247;48.550;8.822;2023-01-19T12:27:12;2.00;;;1.80;;
8419;SDS011;4247;48.550;8.822;2023-01-19T12:29:46;2.03;;;1.83;;
8419;SDS011;4247;48.550;8.822;2023-01-19T12:32:28;1.60;;;1.30;;
8419;SDS011;4247;48.550;8.822;2023-01-19T12:34:58;2.30;;;1.73;;
8419;SDS011;4247;48.550;8.822;2023-01-19T12:37:35;3.73;;;1.97;;
8419;SDS011;4247;48.550;8.822;2023-01-19T12:40:20;7.57;;;1.83;;
8419;SDS011;4247;48.550;8.822;2023-01-19T12:42:51;1.73;;;1.40;;
8419;SDS011;4247;48.550;8.822;2023-01-19T12:45:28;3.00;;;1.43;;
8419;SDS011;4247;48.550;8.822;2023-01-19T12:47:58;2.50;;;1.53;;
8419;SDS011;4247;48.550;8.822;2023-01-19T12:50:33;2.90;;;2.50;;
8419;SDS011;4247;48.550;8.822;2023-01-19T12:53:02;5.07;;;3.20;;
8419;SDS011;4247;48.550;8.822;2023-01-19T12:55:32;3.90;;;2.67;;
8419;SDS011;4247;48.550;8.822;2023-01-19T12:58:02;5.20;;;1.93;;
8419;SDS011;4247;48.550;8.822;2023-01-19T13:00:34;4.07;;;1.97;;
8419;SDS011;4247;48.550;8.822;2023-01-19T13:03:05;2.77;;;2.47;;
8419;SDS011;4247;48.550;8.822;2023-01-19T13:06:07;2.63;;;2.07;;
8419;SDS011;4247;48.550;8.822;2023-01-19T13:11:26;3.50;;;1.83;;
8419;SDS011;4247;48.550;8.822;2023-01-19T13:17:10;5.57;;;2.77;;
8419;SDS011;4247;48.550;8.822;2023-01-19T13:20:00;4.33;;;3.37;;
8419;SDS011;4247;48.550;8.822;2023-01-19T13:22:48;4.80;;;2.67;;
8419;SDS011;4247;48.550;8.822;2023-01-19T13:25:40;11.87;;;3.20;;
8419;SDS011;4247;48.550;8.822;2023-01-19T13:28:12;7.83;;;2.87;;
8419;SDS011;4247;48.550;8.822;2023-01-19T13:30:47;3.87;;;2.20;;
8419;SDS011;4247;48.550;8.822;2023-01-19T13:33:20;2.20;;;2.00;;
8419;SDS011;4247;48.550;8.822;2023-01-19T13:35:51;1.60;;;1.50;;
8419;SDS011;4247;48.550;8.822;2023-01-19T13:38:22;5.10;;;2.60;;
8419;SDS011;4247;48.550;8.822;2023-01-19T13:40:50;4.80;;;2.83;;
8419;SDS011;4247;48.550;8.822;2023-01-19T13:43:20;5.30;;;2.00;;
8419;SDS011;4247;48.550;8.822;2023-01-19T13:45:52;9.53;;;1.43;;
8419;SDS011;4247;48.550;8.822;2023-01-19T13:48:20;2.07;;;1.90;;
8419;SDS011;4247;48.550;8.822;2023-01-19T13:50:57;1.87;;;1.43;;
8419;SDS011;4247;48.550;8.822;2023-01-19T13:53:25;1.87;;;1.70;;
8419;SDS011;4247;48.550;8.822;2023-01-19T13:56:06;2.50;;;1.50;;
8419;SDS011;4247;48.550;8.822;2023-01-19T13:58:38;2.20;;;1.50;;
8419;SDS011;4247;48.550;8.822;2023-01-19T14:01:05;2.93;;;2.60;;
8419;SDS011;4247;48.550;8.822;2023-01-19T14:03:43;4.53;;;2.83;;
8419;SDS011;4247;48.550;8.822;2023-01-19T14:06:21;20.40;;;7.00;;
8419;SDS011;4247;48.550;8.822;2023-01-19T14:09:04;21.67;;;8.37;;
8419;SDS011;4247;48.550;8.822;2023-01-19T14:11:40;5.43;;;3.03;;
8419;SDS011;4247;48.550;8.822;2023-01-19T14:14:20;3.60;;;2.67;;
8419;SDS011;4247;48.550;8.822;2023-01-19T14:16:50;2.60;;;2.20;;
8419;SDS011;4247;48.550;8.822;2023-01-19T14:19:17;2.87;;;2.30;;
8419;SDS011;4247;48.550;8.822;2023-01-19T14:21:46;2.77;;;1.60;;
8419;SDS011;4247;48.550;8.822;2023-01-19T14:24:23;2.10;;;1.90;;
8419;SDS011;4247;48.550;8.822;2023-01-19T14:26:53;5.40;;;2.00;;
8419;SDS011;4247;48.550;8.822;2023-01-19T14:29:33;5.53;;;2.07;;
8419;SDS011;4247;48.550;8.822;2023-01-19T14:32:06;4.30;;;1.87;;
8419;SDS011;4247;48.550;8.822;2023-01-19T14:34:39;5.73;;;2.70;;
8419;SDS011;4247;48.550;8.822;2023-01-19T14:37:19;3.27;;;2.70;;
8419;SDS011;4247;48.550;8.822;2023-01-19T14:39:48;2.90;;;2.50;;
8419;SDS011;4247;48.550;8.822;2023-01-19T14:42:18;3.27;;;2.97;;
8419;SDS011;4247;48.550;8.822;2023-01-19T14:44:48;5.07;;;4.13;;
8419;SDS011;4247;48.550;8.822;2023-01-19T14:47:27;3.77;;;3.37;;
8419;SDS011;4247;48.550;8.822;2023-01-19T14:49:58;4.07;;;3.00;;
8419;SDS011;4247;48.550;8.822;2023-01-19T14:52:33;6.13;;;2.93;;
8419;SDS011;4247;48.550;8.822;2023-01-19T14:55:04;5.43;;;2.50;;
8419;SDS011;4247;48.550;8.822;2023-01-19T14:57:33;2.53;;;2.07;;
8419;SDS011;4247;48.550;8.822;2023-01-19T15:00:05;6.17;;;2.33;;
8419;SDS011;4247;48.550;8.822;2023-01-19T15:02:39;3.37;;;2.80;;
8419;SDS011;4247;48.550;8.822;2023-01-19T15:05:06;3.20;;;1.87;;
8419;SDS011;4247;48.550;8.822;2023-01-19T15:07:35;2.70;;;2.07;;
8419;SDS011;4247;48.550;8.822;2023-01-19T15:10:02;3.93;;;2.80;;
8419;SDS011;4247;48.550;8.822;2023-01-19T15:12:30;3.83;;;2.70;;
8419;SDS011;4247;48.550;8.822;2023-01-19T15:14:56;13.10;;;4.67;;
8419;SDS011;4247;48.550;8.822;2023-01-19T15:17:23;22.27;;;10.10;;
8419;SDS011;4247;48.550;8.822;2023-01-19T15:19:51;8.43;;;5.43;;
8419;SDS011;4247;48.550;8.822;2023-01-19T15:22:18;4.07;;;2.80;;
8419;SDS011;4247;48.550;8.822;2023-01-19T15:24:47;3.93;;;2.63;;
8419;SDS011;4247;48.550;8.822;2023-01-19T15:27:14;4.50;;;3.13;;
8419;SDS011;4247;48.550;8.822;2023-01-19T15:29:41;3.53;;;2.90;;
8419;SDS011;4247;48.550;8.822;2023-01-19T15:32:10;3.30;;;2.60;;
8419;SDS011;4247;48.550;8.822;2023-01-19T15:34:38;3.23;;;2.93;;
8419;SDS011;4247;48.550;8.822;2023-01-19T15:37:04;3.93;;;3.53;;
8419;SDS011;4247;48.550;8.822;2023-01-19T15:39:31;6.20;;;3.53;;
8419;SDS011;4247;48.550;8.822;2023-01-19T15:41:59;13.03;;;7.43;;
8419;SDS011;4247;48.550;8.822;2023-01-19T15:44:26;9.03;;;5.10;;